sensor_id;sensor_type;location;lat;lon;timestamp;P1;durP1;ratioP1;P2;durP2;ratioP2
19024;SDS011;9645;51.448;6.260;2024-01-07T00:00:30;45.28;;;16.33;;
19024;SDS011;9645;51.448;6.260;2024-01-07T00:02:57;47.80;;;15.95;;
19024;SDS011;9645;51.448;6.260;2024-01-07T00:05:24;48.53;;;15.80;;
19024;SDS011;9645;51.448;6.260;2024-01-07T00:07:50;44.95;;;15.43;;
19024;SDS011;9645;51.448;6.260;2024-01-07T00:10:17;44.00;;;14.43;;
19024;SDS011;9645;51.448;6.260;2024-01-07T00:12:46;40.33;;;14.77;;
19024;SDS011;9645;51.448;6.260;2024-01-07T00:15:13;38.63;;;13.60;;
19024;SDS011;9645;51.448;6.260;2024-01-07T00:17:42;44.15;;;15.20;;
19024;SDS011;9645;51.448;6.260;2024-01-07T00:20:12;44.05;;;14.32;;
19024;SDS011;9645;51.448;6.260;2024-01-07T00:22:39;42.25;;;14.13;;
19024;SDS011;9645;51.448;6.260;2024-01-07T00:25:06;43.40;;;15.02;;
19024;SDS011;9645;51.448;6.260;2024-01-07T00:27:33;42.65;;;13.63;;
19024;SDS011;9645;51.448;6.260;2024-01-07T00:30:02;42.95;;;14.80;;
19024;SDS011;9645;51.448;6.260;2024-01-07T00:32:30;40.42;;;14.23;;
19024;SDS011;9645;51.448;6.260;2024-01-07T00:34:57;53.13;;;15.63;;
19024;SDS011;9645;51.448;6.260;2024-01-07T00:37:24;46.92;;;15.30;;
19024;SDS011;9645;51.448;6.260;2024-01-07T00:39:51;51.95;;;16.70;;
19024;SDS011;9645;51.448;6.260;2024-01-07T00:42:18;41.00;;;15.32;;
19024;SDS011;9645;51.448;6.260;2024-01-07T00:44:44;47.90;;;14.75;;
19024;SDS011;9645;51.448;6.260;2024-01-07T00:47:13;59.55;;;16.08;;
19024;SDS011;9645;51.448;6.260;2024-01-07T00:49:40;69.22;;;15.77;;
19024;SDS011;9645;51.448;6.260;2024-01-07T00:52:07;54.95;;;15.57;;
19024;SDS011;9645;51.448;6.260;2024-01-07T00:54:35;47.00;;;14.90;;
19024;SDS011;9645;51.448;6.260;2024-01-07T00:57:03;56.05;;;15.82;;
19024;SDS011;9645;51.448;6.260;2024-01-07T00:59:30;53.65;;;16.00;;
19024;SDS011;9645;51.448;6.260;2024-01-07T01:01:57;45.63;;;13.43;;
19024;SDS011;9645;51.448;6.260;2024-01-07T01:04:25;45.30;;;15.02;;
19024;SDS011;9645;51.448;6.260;2024-01-07T01:06:52;43.40;;;14.00;;
19024;SDS011;9645;51.448;6.260;2024-01-07T01:09:19;46.92;;;16.05;;
19024;SDS011;9645;51.448;6.260;2024-01-07T01:11:46;47.08;;;14.50;;
19024;SDS011;9645;51.448;6.260;2024-01-07T01:14:14;47.65;;;13.13;;
19024;SDS011;9645;51.448;6.260;2024-01-07T01:16:41;48.53;;;13.10;;
19024;SDS011;9645;51.448;6.260;2024-01-07T01:19:08;44.50;;;13.15;;
19024;SDS011;9645;51.448;6.260;2024-01-07T01:21:37;42.20;;;13.68;;
19024;SDS011;9645;51.448;6.260;2024-01-07T01:24:04;36.95;;;12.13;;
19024;SDS011;9645;51.448;6.260;2024-01-07T01:26:30;39.80;;;12.18;;
19024;SDS011;9645;51.448;6.260;2024-01-07T01:28:57;37.17;;;11.68;;
19024;SDS011;9645;51.448;6.260;2024-01-07T01:31:24;32.13;;;10.60;;
19024;SDS011;9645;51.448;6.260;2024-01-07T01:33:50;36.92;;;11.15;;
19024;SDS011;9645;51.448;6.260;2024-01-07T01:36:17;37.28;;;11.15;;
19024;SDS011;9645;51.448;6.260;2024-01-07T01:38:46;35.72;;;11.00;;
19024;SDS011;9645;51.448;6.260;2024-01-07T01:41:13;28.83;;;10.90;;
19024;SDS011;9645;51.448;6.260;2024-01-07T01:43:40;31.02;;;10.20;;
19024;SDS011;9645;51.448;6.260;2024-01-07T01:46:07;35.40;;;10.20;;
19024;SDS011;9645;51.448;6.260;2024-01-07T01:48:35;35.17;;;10.98;;
19024;SDS011;9645;51.448;6.260;2024-01-07T01:51:02;26.35;;;9.50;;
19024;SDS011;9645;51.448;6.260;2024-01-07T01:53:29;29.63;;;10.13;;
19024;SDS011;9645;51.448;6.260;2024-01-07T01:55:59;32.95;;;11.07;;
19024;SDS011;9645;51.448;6.260;2024-01-07T01:58:28;33.25;;;11.65;;
19024;SDS011;9645;51.448;6.260;2024-01-07T02:00:56;30.85;;;10.10;;
19024;SDS011;9645;51.448;6.260;2024-01-07T02:03:23;31.02;;;9.45;;
19024;SDS011;9645;51.448;6.260;2024-01-07T02:05:51;32.38;;;10.55;;
19024;SDS011;9645;51.448;6.260;2024-01-07T02:08:19;29.65;;;10.57;;
19024;SDS011;9645;51.448;6.260;2024-01-07T02:10:46;31.70;;;10.57;;
19024;SDS011;9645;51.448;6.260;2024-01-07T02:13:15;32.55;;;11.68;;
19024;SDS011;9645;51.448;6.260;2024-01-07T02:15:42;35.28;;;10.80;;
19024;SDS011;9645;51.448;6.260;2024-01-07T02:18:09;36.70;;;11.73;;
19024;SDS011;9645;51.448;6.260;2024-01-07T02:20:36;27.70;;;10.00;;
19024;SDS011;9645;51.448;6.260;2024-01-07T02:23:03;30.35;;;10.75;;
19024;SDS011;9645;51.448;6.260;2024-01-07T02:25:35;31.55;;;10.85;;
19024;SDS011;9645;51.448;6.260;2024-01-07T02:28:02;26.77;;;10.73;;
19024;SDS011;9645;51.448;6.260;2024-01-07T02:30:30;33.75;;;10.85;;
19024;SDS011;9645;51.448;6.260;2024-01-07T02:33:00;29.27;;;10.25;;
19024;SDS011;9645;51.448;6.260;2024-01-07T02:35:28;28.55;;;9.80;;
19024;SDS011;9645;51.448;6.260;2024-01-07T02:37:55;35.42;;;11.73;;
19024;SDS011;9645;51.448;6.260;2024-01-07T02:40:22;35.10;;;10.90;;
19024;SDS011;9645;51.448;6.260;2024-01-07T02:42:50;32.20;;;11.18;;
19024;SDS011;9645;51.448;6.260;2024-01-07T02:45:17;35.97;;;11.38;;
19024;SDS011;9645;51.448;6.260;2024-01-07T02:47:44;30.42;;;11.30;;
19024;SDS011;9645;51.448;6.260;2024-01-07T02:50:11;30.77;;;11.82;;
19024;SDS011;9645;51.448;6.260;2024-01-07T02:52:38;33.65;;;11.13;;
19024;SDS011;9645;51.448;6.260;2024-01-07T02:55:05;36.42;;;12.13;;
19024;SDS011;9645;51.448;6.260;2024-01-07T02:57:33;33.33;;;11.90;;
19024;SDS011;9645;51.448;6.260;2024-01-07T03:00:01;36.45;;;12.18;;
19024;SDS011;9645;51.448;6.260;2024-01-07T03:02:30;29.30;;;10.65;;
19024;SDS011;9645;51.448;6.260;2024-01-07T03:04:56;31.27;;;11.85;;
19024;SDS011;9645;51.448;6.260;2024-01-07T03:07:23;31.80;;;10.95;;
19024;SDS011;9645;51.448;6.260;2024-01-07T03:09:50;30.50;;;10.77;;
19024;SDS011;9645;51.448;6.260;2024-01-07T03:12:17;27.33;;;10.77;;
19024;SDS011;9645;51.448;6.260;2024-01-07T03:14:44;33.15;;;11.43;;
19024;SDS011;9645;51.448;6.260;2024-01-07T03:17:13;31.67;;;11.15;;
19024;SDS011;9645;51.448;6.260;2024-01-07T03:19:42;33.83;;;12.00;;
19024;SDS011;9645;51.448;6.260;2024-01-07T03:22:09;35.97;;;11.55;;
19024;SDS011;9645;51.448;6.260;2024-01-07T03:24:36;33.20;;;11.05;;
19024;SDS011;9645;51.448;6.260;2024-01-07T03:27:03;36.33;;;11.52;;
19024;SDS011;9645;51.448;6.260;2024-01-07T03:29:30;29.55;;;11.27;;
19024;SDS011;9645;51.448;6.260;2024-01-07T03:31:58;32.72;;;11.45;;
19024;SDS011;9645;51.448;6.260;2024-01-07T03:34:26;37.72;;;12.25;;
19024;SDS011;9645;51.448;6.260;2024-01-07T03:36:53;34.80;;;11.18;;
19024;SDS011;9645;51.448;6.260;2024-01-07T03:39:20;33.38;;;11.65;;
19024;SDS011;9645;51.448;6.260;2024-01-07T03:41:47;32.60;;;12.00;;
19024;SDS011;9645;51.448;6.260;2024-01-07T03:44:13;32.38;;;11.55;;
19024;SDS011;9645;51.448;6.260;2024-01-07T03:46:40;32.28;;;10.95;;
19024;SDS011;9645;51.448;6.260;2024-01-07T03:49:07;40.28;;;12.32;;
19024;SDS011;9645;51.448;6.260;2024-01-07T03:51:36;41.55;;;12.43;;
19024;SDS011;9645;51.448;6.260;2024-01-07T03:54:02;32.05;;;11.00;;
19024;SDS011;9645;51.448;6.260;2024-01-07T03:56:30;40.50;;;11.75;;
19024;SDS011;9645;51.448;6.260;2024-01-07T03:58:57;39.00;;;12.43;;
19024;SDS011;9645;51.448;6.260;2024-01-07T04:01:24;31.60;;;12.02;;
19024;SDS011;9645;51.448;6.260;2024-01-07T04:03:50;41.45;;;13.65;;
19024;SDS011;9645;51.448;6.260;2024-01-07T04:06:17;38.97;;;13.45;;
19024;SDS011;9645;51.448;6.260;2024-01-07T04:08:46;45.05;;;13.00;;
19024;SDS011;9645;51.448;6.260;2024-01-07T04:11:13;32.45;;;11.65;;
19024;SDS011;9645;51.448;6.260;2024-01-07T04:13:40;41.63;;;13.30;;
19024;SDS011;9645;51.448;6.260;2024-01-07T04:16:15;36.97;;;12.85;;
19024;SDS011;9645;51.448;6.260;2024-01-07T04:18:42;35.60;;;13.20;;
19024;SDS011;9645;51.448;6.260;2024-01-07T04:21:09;34.97;;;12.57;;
19024;SDS011;9645;51.448;6.260;2024-01-07T04:23:38;42.28;;;13.63;;
19024;SDS011;9645;51.448;6.260;2024-01-07T04:26:07;38.22;;;12.38;;
19024;SDS011;9645;51.448;6.260;2024-01-07T04:28:34;39.67;;;11.82;;
19024;SDS011;9645;51.448;6.260;2024-01-07T04:31:01;37.58;;;12.68;;
19024;SDS011;9645;51.448;6.260;2024-01-07T04:33:27;39.25;;;13.15;;
19024;SDS011;9645;51.448;6.260;2024-01-07T04:35:54;33.38;;;11.32;;
19024;SDS011;9645;51.448;6.260;2024-01-07T04:38:24;33.75;;;11.90;;
19024;SDS011;9645;51.448;6.260;2024-01-07T04:40:51;30.45;;;11.07;;
19024;SDS011;9645;51.448;6.260;2024-01-07T04:43:19;28.45;;;11.35;;
19024;SDS011;9645;51.448;6.260;2024-01-07T04:45:46;33.50;;;11.55;;
19024;SDS011;9645;51.448;6.260;2024-01-07T04:48:13;39.42;;;12.07;;
19024;SDS011;9645;51.448;6.260;2024-01-07T04:50:40;32.38;;;11.00;;
19024;SDS011;9645;51.448;6.260;2024-01-07T04:53:08;24.50;;;10.38;;
19024;SDS011;9645;51.448;6.260;2024-01-07T04:55:35;31.73;;;10.23;;
19024;SDS011;9645;51.448;6.260;2024-01-07T04:58:02;32.15;;;11.48;;
19024;SDS011;9645;51.448;6.260;2024-01-07T05:00:31;29.80;;;10.90;;
19024;SDS011;9645;51.448;6.260;2024-01-07T05:02:58;29.33;;;10.73;;
19024;SDS011;9645;51.448;6.260;2024-01-07T05:05:25;27.33;;;10.38;;
19024;SDS011;9645;51.448;6.260;2024-01-07T05:07:52;29.98;;;11.07;;
19024;SDS011;9645;51.448;6.260;2024-01-07T05:10:19;30.80;;;11.13;;
19024;SDS011;9645;51.448;6.260;2024-01-07T05:12:45;28.92;;;11.15;;
19024;SDS011;9645;51.448;6.260;2024-01-07T05:15:12;27.65;;;10.93;;
19024;SDS011;9645;51.448;6.260;2024-01-07T05:17:41;27.55;;;10.43;;
19024;SDS011;9645;51.448;6.260;2024-01-07T05:20:08;31.92;;;11.05;;
19024;SDS011;9645;51.448;6.260;2024-01-07T05:22:36;24.30;;;10.80;;
19024;SDS011;9645;51.448;6.260;2024-01-07T05:25:03;28.52;;;10.60;;
19024;SDS011;9645;51.448;6.260;2024-01-07T05:27:31;33.15;;;11.85;;
19024;SDS011;9645;51.448;6.260;2024-01-07T05:29:58;27.85;;;10.10;;
19024;SDS011;9645;51.448;6.260;2024-01-07T05:32:25;28.95;;;9.93;;
19024;SDS011;9645;51.448;6.260;2024-01-07T05:34:53;28.92;;;10.68;;
19024;SDS011;9645;51.448;6.260;2024-01-07T05:37:20;30.73;;;10.57;;
19024;SDS011;9645;51.448;6.260;2024-01-07T05:39:47;27.67;;;11.35;;
19024;SDS011;9645;51.448;6.260;2024-01-07T05:42:14;26.17;;;10.40;;
19024;SDS011;9645;51.448;6.260;2024-01-07T05:44:41;28.90;;;10.38;;
19024;SDS011;9645;51.448;6.260;2024-01-07T05:47:08;28.10;;;10.05;;
19024;SDS011;9645;51.448;6.260;2024-01-07T05:49:35;24.80;;;10.20;;
19024;SDS011;9645;51.448;6.260;2024-01-07T05:52:04;25.10;;;10.65;;
19024;SDS011;9645;51.448;6.260;2024-01-07T05:54:31;25.17;;;9.20;;
19024;SDS011;9645;51.448;6.260;2024-01-07T05:56:58;25.48;;;10.20;;
19024;SDS011;9645;51.448;6.260;2024-01-07T05:59:25;24.13;;;9.00;;
19024;SDS011;9645;51.448;6.260;2024-01-07T06:01:56;33.13;;;9.90;;
19024;SDS011;9645;51.448;6.260;2024-01-07T06:04:24;19.73;;;9.25;;
19024;SDS011;9645;51.448;6.260;2024-01-07T06:06:51;21.92;;;9.25;;
19024;SDS011;9645;51.448;6.260;2024-01-07T06:09:19;22.50;;;8.40;;
19024;SDS011;9645;51.448;6.260;2024-01-07T06:11:46;21.15;;;9.63;;
19024;SDS011;9645;51.448;6.260;2024-01-07T06:14:13;27.20;;;10.32;;
19024;SDS011;9645;51.448;6.260;2024-01-07T06:16:41;24.52;;;10.35;;
19024;SDS011;9645;51.448;6.260;2024-01-07T06:19:08;22.25;;;9.68;;
19024;SDS011;9645;51.448;6.260;2024-01-07T06:21:35;29.65;;;10.05;;
19024;SDS011;9645;51.448;6.260;2024-01-07T06:24:02;25.42;;;10.65;;
19024;SDS011;9645;51.448;6.260;2024-01-07T06:26:30;22.67;;;9.40;;
19024;SDS011;9645;51.448;6.260;2024-01-07T06:28:57;25.08;;;10.65;;
19024;SDS011;9645;51.448;6.260;2024-01-07T06:31:24;20.95;;;9.05;;
19024;SDS011;9645;51.448;6.260;2024-01-07T06:33:51;27.27;;;10.82;;
19024;SDS011;9645;51.448;6.260;2024-01-07T06:36:20;28.63;;;9.93;;
19024;SDS011;9645;51.448;6.260;2024-01-07T06:38:48;18.83;;;9.00;;
19024;SDS011;9645;51.448;6.260;2024-01-07T06:41:15;24.75;;;10.60;;
19024;SDS011;9645;51.448;6.260;2024-01-07T06:43:43;29.58;;;10.73;;
19024;SDS011;9645;51.448;6.260;2024-01-07T06:46:10;24.48;;;10.48;;
19024;SDS011;9645;51.448;6.260;2024-01-07T06:48:37;27.25;;;11.13;;
19024;SDS011;9645;51.448;6.260;2024-01-07T06:51:04;30.98;;;10.63;;
19024;SDS011;9645;51.448;6.260;2024-01-07T06:53:31;30.60;;;10.57;;
19024;SDS011;9645;51.448;6.260;2024-01-07T06:55:58;32.30;;;11.23;;
19024;SDS011;9645;51.448;6.260;2024-01-07T06:58:24;26.65;;;10.50;;
19024;SDS011;9645;51.448;6.260;2024-01-07T07:00:53;26.60;;;10.13;;
19024;SDS011;9645;51.448;6.260;2024-01-07T07:03:21;27.48;;;9.77;;
19024;SDS011;9645;51.448;6.260;2024-01-07T07:05:48;25.10;;;9.95;;
19024;SDS011;9645;51.448;6.260;2024-01-07T07:08:15;30.42;;;12.35;;
19024;SDS011;9645;51.448;6.260;2024-01-07T07:10:43;29.35;;;10.88;;
19024;SDS011;9645;51.448;6.260;2024-01-07T07:13:11;28.50;;;10.95;;
19024;SDS011;9645;51.448;6.260;2024-01-07T07:15:39;30.40;;;11.07;;
19024;SDS011;9645;51.448;6.260;2024-01-07T07:18:07;32.55;;;11.63;;
19024;SDS011;9645;51.448;6.260;2024-01-07T07:20:35;27.23;;;10.30;;
19024;SDS011;9645;51.448;6.260;2024-01-07T07:23:02;28.88;;;11.15;;
19024;SDS011;9645;51.448;6.260;2024-01-07T07:25:29;30.50;;;11.07;;
19024;SDS011;9645;51.448;6.260;2024-01-07T07:27:56;35.63;;;12.60;;
19024;SDS011;9645;51.448;6.260;2024-01-07T07:30:23;28.55;;;10.15;;
19024;SDS011;9645;51.448;6.260;2024-01-07T07:32:51;26.85;;;10.40;;
19024;SDS011;9645;51.448;6.260;2024-01-07T07:35:20;34.35;;;10.98;;
19024;SDS011;9645;51.448;6.260;2024-01-07T07:37:47;28.90;;;11.35;;
19024;SDS011;9645;51.448;6.260;2024-01-07T07:40:14;36.08;;;12.05;;
19024;SDS011;9645;51.448;6.260;2024-01-07T07:42:42;35.95;;;11.95;;
19024;SDS011;9645;51.448;6.260;2024-01-07T07:45:09;33.67;;;10.75;;
19024;SDS011;9645;51.448;6.260;2024-01-07T07:47:38;33.20;;;11.48;;
19024;SDS011;9645;51.448;6.260;2024-01-07T07:50:09;40.33;;;11.40;;
19024;SDS011;9645;51.448;6.260;2024-01-07T07:52:38;28.92;;;11.13;;
19024;SDS011;9645;51.448;6.260;2024-01-07T07:55:06;31.85;;;12.05;;
19024;SDS011;9645;51.448;6.260;2024-01-07T07:57:34;31.15;;;11.90;;
19024;SDS011;9645;51.448;6.260;2024-01-07T08:00:03;29.45;;;11.05;;
19024;SDS011;9645;51.448;6.260;2024-01-07T08:02:31;32.08;;;10.80;;
19024;SDS011;9645;51.448;6.260;2024-01-07T08:05:01;34.72;;;13.07;;
19024;SDS011;9645;51.448;6.260;2024-01-07T08:07:29;32.45;;;12.55;;
19024;SDS011;9645;51.448;6.260;2024-01-07T08:09:57;30.50;;;11.70;;
19024;SDS011;9645;51.448;6.260;2024-01-07T08:12:25;31.98;;;11.43;;
19024;SDS011;9645;51.448;6.260;2024-01-07T08:14:52;31.88;;;12.57;;
19024;SDS011;9645;51.448;6.260;2024-01-07T08:17:19;31.50;;;12.45;;
19024;SDS011;9645;51.448;6.260;2024-01-07T08:19:46;35.40;;;12.70;;
19024;SDS011;9645;51.448;6.260;2024-01-07T08:22:13;29.60;;;11.60;;
19024;SDS011;9645;51.448;6.260;2024-01-07T08:24:41;38.60;;;11.73;;
19024;SDS011;9645;51.448;6.260;2024-01-07T08:27:09;31.35;;;11.50;;
19024;SDS011;9645;51.448;6.260;2024-01-07T08:29:36;27.42;;;11.48;;
19024;SDS011;9645;51.448;6.260;2024-01-07T08:32:04;29.55;;;11.15;;
19024;SDS011;9645;51.448;6.260;2024-01-07T08:34:32;27.40;;;10.75;;
19024;SDS011;9645;51.448;6.260;2024-01-07T08:37:00;27.02;;;10.75;;
19024;SDS011;9645;51.448;6.260;2024-01-07T08:39:27;31.20;;;10.93;;
19024;SDS011;9645;51.448;6.260;2024-01-07T08:41:55;27.50;;;10.40;;
19024;SDS011;9645;51.448;6.260;2024-01-07T08:44:23;26.90;;;10.63;;
19024;SDS011;9645;51.448;6.260;2024-01-07T08:46:50;31.73;;;10.85;;
19024;SDS011;9645;51.448;6.260;2024-01-07T08:49:18;35.90;;;11.43;;
19024;SDS011;9645;51.448;6.260;2024-01-07T08:51:45;30.27;;;10.77;;
19024;SDS011;9645;51.448;6.260;2024-01-07T08:54:12;33.15;;;11.25;;
19024;SDS011;9645;51.448;6.260;2024-01-07T08:56:39;29.15;;;11.20;;
19024;SDS011;9645;51.448;6.260;2024-01-07T08:59:06;30.63;;;11.45;;
19024;SDS011;9645;51.448;6.260;2024-01-07T09:01:36;28.65;;;10.63;;
19024;SDS011;9645;51.448;6.260;2024-01-07T09:04:03;24.08;;;10.73;;
19024;SDS011;9645;51.448;6.260;2024-01-07T09:06:31;35.15;;;11.55;;
19024;SDS011;9645;51.448;6.260;2024-01-07T09:08:58;25.25;;;11.27;;
19024;SDS011;9645;51.448;6.260;2024-01-07T09:11:25;25.77;;;10.18;;
19024;SDS011;9645;51.448;6.260;2024-01-07T09:13:52;24.50;;;10.85;;
19024;SDS011;9645;51.448;6.260;2024-01-07T09:16:21;28.85;;;11.52;;
19024;SDS011;9645;51.448;6.260;2024-01-07T09:18:53;33.45;;;10.20;;
19024;SDS011;9645;51.448;6.260;2024-01-07T09:21:22;28.92;;;10.55;;
19024;SDS011;9645;51.448;6.260;2024-01-07T09:23:50;23.95;;;9.85;;
19024;SDS011;9645;51.448;6.260;2024-01-07T09:26:18;34.22;;;11.93;;
19024;SDS011;9645;51.448;6.260;2024-01-07T09:28:46;25.45;;;11.02;;
19024;SDS011;9645;51.448;6.260;2024-01-07T09:31:14;27.15;;;10.70;;
19024;SDS011;9645;51.448;6.260;2024-01-07T09:33:41;23.40;;;9.85;;
19024;SDS011;9645;51.448;6.260;2024-01-07T09:36:12;23.08;;;9.93;;
19024;SDS011;9645;51.448;6.260;2024-01-07T09:38:41;27.83;;;10.50;;
19024;SDS011;9645;51.448;6.260;2024-01-07T09:41:08;25.75;;;9.70;;
19024;SDS011;9645;51.448;6.260;2024-01-07T09:43:35;26.77;;;10.45;;
19024;SDS011;9645;51.448;6.260;2024-01-07T09:46:02;22.95;;;9.77;;
19024;SDS011;9645;51.448;6.260;2024-01-07T09:48:30;23.15;;;9.95;;
19024;SDS011;9645;51.448;6.260;2024-01-07T09:50:57;26.63;;;9.93;;
19024;SDS011;9645;51.448;6.260;2024-01-07T09:53:27;26.05;;;9.73;;
19024;SDS011;9645;51.448;6.260;2024-01-07T09:56:00;24.63;;;9.70;;
19024;SDS011;9645;51.448;6.260;2024-01-07T09:58:29;20.77;;;8.73;;
19024;SDS011;9645;51.448;6.260;2024-01-07T10:00:56;22.33;;;8.73;;
19024;SDS011;9645;51.448;6.260;2024-01-07T10:03:23;25.92;;;9.40;;
19024;SDS011;9645;51.448;6.260;2024-01-07T10:05:51;18.35;;;8.32;;
19024;SDS011;9645;51.448;6.260;2024-01-07T10:08:18;21.55;;;8.50;;
19024;SDS011;9645;51.448;6.260;2024-01-07T10:10:48;21.13;;;8.60;;
19024;SDS011;9645;51.448;6.260;2024-01-07T10:13:15;19.92;;;8.52;;
19024;SDS011;9645;51.448;6.260;2024-01-07T10:15:42;20.73;;;8.68;;
19024;SDS011;9645;51.448;6.260;2024-01-07T10:18:09;23.40;;;9.23;;
19024;SDS011;9645;51.448;6.260;2024-01-07T10:20:37;19.38;;;7.90;;
19024;SDS011;9645;51.448;6.260;2024-01-07T10:23:04;22.33;;;8.43;;
19024;SDS011;9645;51.448;6.260;2024-01-07T10:25:33;19.98;;;8.68;;
19024;SDS011;9645;51.448;6.260;2024-01-07T10:28:01;18.48;;;8.25;;
19024;SDS011;9645;51.448;6.260;2024-01-07T10:30:29;17.42;;;7.63;;
19024;SDS011;9645;51.448;6.260;2024-01-07T10:32:57;27.02;;;9.07;;
19024;SDS011;9645;51.448;6.260;2024-01-07T10:35:26;16.67;;;7.80;;
19024;SDS011;9645;51.448;6.260;2024-01-07T10:37:54;21.42;;;8.40;;
19024;SDS011;9645;51.448;6.260;2024-01-07T10:40:22;18.38;;;8.10;;
19024;SDS011;9645;51.448;6.260;2024-01-07T10:42:49;18.60;;;8.40;;
19024;SDS011;9645;51.448;6.260;2024-01-07T10:45:19;19.75;;;8.18;;
19024;SDS011;9645;51.448;6.260;2024-01-07T10:47:48;17.52;;;7.82;;
19024;SDS011;9645;51.448;6.260;2024-01-07T10:50:16;17.50;;;7.13;;
19024;SDS011;9645;51.448;6.260;2024-01-07T10:52:43;19.98;;;7.88;;
19024;SDS011;9645;51.448;6.260;2024-01-07T10:55:13;19.70;;;7.70;;
19024;SDS011;9645;51.448;6.260;2024-01-07T10:57:42;18.77;;;7.80;;
19024;SDS011;9645;51.448;6.260;2024-01-07T11:00:11;17.58;;;7.45;;
19024;SDS011;9645;51.448;6.260;2024-01-07T11:02:48;21.95;;;8.13;;
19024;SDS011;9645;51.448;6.260;2024-01-07T11:05:17;16.75;;;6.80;;
19024;SDS011;9645;51.448;6.260;2024-01-07T11:07:51;19.50;;;8.15;;
19024;SDS011;9645;51.448;6.260;2024-01-07T11:10:22;20.10;;;8.38;;
19024;SDS011;9645;51.448;6.260;2024-01-07T11:12:53;19.48;;;7.50;;
19024;SDS011;9645;51.448;6.260;2024-01-07T11:18:04;19.48;;;8.50;;
19024;SDS011;9645;51.448;6.260;2024-01-07T11:20:32;22.27;;;8.98;;
19024;SDS011;9645;51.448;6.260;2024-01-07T11:25:42;14.80;;;7.47;;
19024;SDS011;9645;51.448;6.260;2024-01-07T11:28:10;20.27;;;7.18;;
19024;SDS011;9645;51.448;6.260;2024-01-07T11:30:39;18.55;;;8.05;;
19024;SDS011;9645;51.448;6.260;2024-01-07T11:33:10;20.65;;;8.60;;
19024;SDS011;9645;51.448;6.260;2024-01-07T11:35:53;15.90;;;7.30;;
19024;SDS011;9645;51.448;6.260;2024-01-07T11:38:21;19.33;;;7.05;;
19024;SDS011;9645;51.448;6.260;2024-01-07T11:40:49;14.70;;;7.03;;
19024;SDS011;9645;51.448;6.260;2024-01-07T11:43:16;25.33;;;9.10;;
19024;SDS011;9645;51.448;6.260;2024-01-07T11:45:43;21.67;;;8.88;;
19024;SDS011;9645;51.448;6.260;2024-01-07T11:48:12;18.23;;;7.20;;
19024;SDS011;9645;51.448;6.260;2024-01-07T11:50:40;15.18;;;6.35;;
19024;SDS011;9645;51.448;6.260;2024-01-07T11:53:08;19.35;;;8.00;;
19024;SDS011;9645;51.448;6.260;2024-01-07T11:55:35;19.55;;;7.57;;
19024;SDS011;9645;51.448;6.260;2024-01-07T11:58:02;18.25;;;7.07;;
19024;SDS011;9645;51.448;6.260;2024-01-07T12:00:33;16.92;;;6.65;;
19024;SDS011;9645;51.448;6.260;2024-01-07T12:03:01;17.92;;;6.95;;
19024;SDS011;9645;51.448;6.260;2024-01-07T12:05:30;12.27;;;5.90;;
19024;SDS011;9645;51.448;6.260;2024-01-07T12:07:58;15.18;;;5.50;;
19024;SDS011;9645;51.448;6.260;2024-01-07T12:10:28;12.90;;;5.68;;
19024;SDS011;9645;51.448;6.260;2024-01-07T12:12:55;12.85;;;5.40;;
19024;SDS011;9645;51.448;6.260;2024-01-07T12:15:23;11.82;;;5.68;;
19024;SDS011;9645;51.448;6.260;2024-01-07T12:17:57;14.55;;;6.82;;
19024;SDS011;9645;51.448;6.260;2024-01-07T12:20:25;12.20;;;5.55;;
19024;SDS011;9645;51.448;6.260;2024-01-07T12:22:56;17.17;;;5.00;;
19024;SDS011;9645;51.448;6.260;2024-01-07T12:25:24;11.00;;;5.10;;
19024;SDS011;9645;51.448;6.260;2024-01-07T12:27:51;10.95;;;5.22;;
19024;SDS011;9645;51.448;6.260;2024-01-07T12:30:19;12.30;;;5.72;;
19024;SDS011;9645;51.448;6.260;2024-01-07T12:32:46;12.82;;;5.60;;
19024;SDS011;9645;51.448;6.260;2024-01-07T12:35:14;11.80;;;4.80;;
19024;SDS011;9645;51.448;6.260;2024-01-07T12:37:42;13.77;;;5.00;;
19024;SDS011;9645;51.448;6.260;2024-01-07T12:40:12;12.60;;;5.15;;
19024;SDS011;9645;51.448;6.260;2024-01-07T12:42:42;14.10;;;6.15;;
19024;SDS011;9645;51.448;6.260;2024-01-07T12:45:11;15.10;;;5.55;;
19024;SDS011;9645;51.448;6.260;2024-01-07T12:47:40;15.13;;;5.30;;
19024;SDS011;9645;51.448;6.260;2024-01-07T12:50:08;9.43;;;4.38;;
19024;SDS011;9645;51.448;6.260;2024-01-07T12:52:36;16.00;;;5.85;;
19024;SDS011;9645;51.448;6.260;2024-01-07T12:55:04;16.02;;;6.15;;
19024;SDS011;9645;51.448;6.260;2024-01-07T12:57:33;14.85;;;6.35;;
19024;SDS011;9645;51.448;6.260;2024-01-07T13:00:01;12.80;;;6.15;;
19024;SDS011;9645;51.448;6.260;2024-01-07T13:02:31;17.95;;;7.10;;
19024;SDS011;9645;51.448;6.260;2024-01-07T13:04:58;14.90;;;6.05;;
19024;SDS011;9645;51.448;6.260;2024-01-07T13:07:25;12.05;;;6.25;;
19024;SDS011;9645;51.448;6.260;2024-01-07T13:09:53;8.68;;;4.85;;
19024;SDS011;9645;51.448;6.260;2024-01-07T13:12:20;12.43;;;4.90;;
19024;SDS011;9645;51.448;6.260;2024-01-07T13:14:47;15.02;;;5.03;;
19024;SDS011;9645;51.448;6.260;2024-01-07T13:17:15;12.77;;;5.55;;
19024;SDS011;9645;51.448;6.260;2024-01-07T13:19:42;10.27;;;5.47;;
19024;SDS011;9645;51.448;6.260;2024-01-07T13:22:09;11.10;;;5.10;;
19024;SDS011;9645;51.448;6.260;2024-01-07T13:24:36;11.13;;;5.20;;
19024;SDS011;9645;51.448;6.260;2024-01-07T13:27:04;16.95;;;4.60;;
19024;SDS011;9645;51.448;6.260;2024-01-07T13:29:31;9.18;;;4.43;;
19024;SDS011;9645;51.448;6.260;2024-01-07T13:32:00;12.13;;;4.72;;
19024;SDS011;9645;51.448;6.260;2024-01-07T13:34:27;10.52;;;4.90;;
19024;SDS011;9645;51.448;6.260;2024-01-07T13:36:55;10.43;;;5.05;;
19024;SDS011;9645;51.448;6.260;2024-01-07T13:39:22;14.25;;;4.70;;
19024;SDS011;9645;51.448;6.260;2024-01-07T13:41:49;9.93;;;4.65;;
19024;SDS011;9645;51.448;6.260;2024-01-07T13:44:18;9.52;;;4.40;;
19024;SDS011;9645;51.448;6.260;2024-01-07T13:46:46;7.88;;;3.85;;
19024;SDS011;9645;51.448;6.260;2024-01-07T13:49:15;8.60;;;4.35;;
19024;SDS011;9645;51.448;6.260;2024-01-07T13:51:42;9.25;;;4.10;;
19024;SDS011;9645;51.448;6.260;2024-01-07T13:54:09;12.27;;;4.47;;
19024;SDS011;9645;51.448;6.260;2024-01-07T13:56:39;7.60;;;3.90;;
19024;SDS011;9645;51.448;6.260;2024-01-07T13:59:07;11.45;;;4.70;;
19024;SDS011;9645;51.448;6.260;2024-01-07T14:01:35;8.77;;;4.05;;
19024;SDS011;9645;51.448;6.260;2024-01-07T14:04:02;9.35;;;4.28;;
19024;SDS011;9645;51.448;6.260;2024-01-07T14:06:31;11.00;;;4.20;;
19024;SDS011;9645;51.448;6.260;2024-01-07T14:08:58;10.15;;;4.32;;
19024;SDS011;9645;51.448;6.260;2024-01-07T14:11:26;12.80;;;4.60;;
19024;SDS011;9645;51.448;6.260;2024-01-07T14:13:53;6.22;;;3.17;;
19024;SDS011;9645;51.448;6.260;2024-01-07T14:16:21;7.60;;;3.85;;
19024;SDS011;9645;51.448;6.260;2024-01-07T14:18:49;7.80;;;3.67;;
19024;SDS011;9645;51.448;6.260;2024-01-07T14:21:16;6.47;;;3.15;;
19024;SDS011;9645;51.448;6.260;2024-01-07T14:23:45;5.47;;;3.40;;
19024;SDS011;9645;51.448;6.260;2024-01-07T14:26:12;6.00;;;3.50;;
19024;SDS011;9645;51.448;6.260;2024-01-07T14:28:40;14.00;;;4.20;;
19024;SDS011;9645;51.448;6.260;2024-01-07T14:31:07;6.63;;;3.55;;
19024;SDS011;9645;51.448;6.260;2024-01-07T14:33:34;4.53;;;2.53;;
19024;SDS011;9645;51.448;6.260;2024-01-07T14:36:02;7.88;;;3.53;;
19024;SDS011;9645;51.448;6.260;2024-01-07T14:38:32;8.45;;;3.50;;
19024;SDS011;9645;51.448;6.260;2024-01-07T14:41:03;13.90;;;3.22;;
19024;SDS011;9645;51.448;6.260;2024-01-07T14:43:30;7.63;;;3.50;;
19024;SDS011;9645;51.448;6.260;2024-01-07T14:45:57;7.90;;;3.65;;
19024;SDS011;9645;51.448;6.260;2024-01-07T14:48:24;16.05;;;3.40;;